sensor_id;sensor_type;location;lat;lon;timestamp;temperature;humidity
11140;DHT22;5624;49.388;11.350;2024-03-29T00:00:45;3.10;99.90
11140;DHT22;5624;49.388;11.350;2024-03-29T00:03:10;3.10;99.90
11140;DHT22;5624;49.388;11.350;2024-03-29T00:05:36;3.20;99.90
11140;DHT22;5624;49.388;11.350;2024-03-29T00:08:03;3.10;99.90
11140;DHT22;5624;49.388;11.350;2024-03-29T00:10:29;3.10;99.90
11140;DHT22;5624;49.388;11.350;2024-03-29T00:12:54;3.10;99.90
11140;DHT22;5624;49.388;11.350;2024-03-29T00:15:20;3.10;99.90
11140;DHT22;5624;49.388;11.350;2024-03-29T00:17:45;3.10;99.90
11140;DHT22;5624;49.388;11.350;2024-03-29T00:20:11;3.10;99.90
11140;DHT22;5624;49.388;11.350;2024-03-29T00:22:37;3.20;99.90
11140;DHT22;5624;49.388;11.350;2024-03-29T00:25:03;3.20;99.90
11140;DHT22;5624;49.388;11.350;2024-03-29T00:27:29;3.20;99.90
11140;DHT22;5624;49.388;11.350;2024-03-29T00:29:55;3.30;99.90
11140;DHT22;5624;49.388;11.350;2024-03-29T00:32:21;3.30;99.90
11140;DHT22;5624;49.388;11.350;2024-03-29T00:34:51;3.30;99.90
11140;DHT22;5624;49.388;11.350;2024-03-29T00:37:17;3.30;99.90
11140;DHT22;5624;49.388;11.350;2024-03-29T00:39:43;3.50;99.90
11140;DHT22;5624;49.388;11.350;2024-03-29T00:42:09;3.40;99.90
11140;DHT22;5624;49.388;11.350;2024-03-29T00:44:41;3.50;99.90
11140;DHT22;5624;49.388;11.350;2024-03-29T00:47:06;3.50;99.90
11140;DHT22;5624;49.388;11.350;2024-03-29T00:49:31;3.60;99.90
11140;DHT22;5624;49.388;11.350;2024-03-29T00:51:57;3.60;99.90
11140;DHT22;5624;49.388;11.350;2024-03-29T00:54:22;3.70;99.90
11140;DHT22;5624;49.388;11.350;2024-03-29T00:56:51;3.70;99.90
11140;DHT22;5624;49.388;11.350;2024-03-29T00:59:17;3.80;99.90
11140;DHT22;5624;49.388;11.350;2024-03-29T01:01:43;3.70;99.90
11140;DHT22;5624;49.388;11.350;2024-03-29T01:04:10;3.80;99.90
11140;DHT22;5624;49.388;11.350;2024-03-29T01:06:35;3.80;99.90
11140;DHT22;5624;49.388;11.350;2024-03-29T01:09:01;3.80;99.90
11140;DHT22;5624;49.388;11.350;2024-03-29T01:11:28;3.80;99.90
11140;DHT22;5624;49.388;11.350;2024-03-29T01:13:54;3.80;99.90
11140;DHT22;5624;49.388;11.350;2024-03-29T01:16:19;3.80;99.90
11140;DHT22;5624;49.388;11.350;2024-03-29T01:18:45;3.80;99.90
11140;DHT22;5624;49.388;11.350;2024-03-29T01:21:15;3.90;99.90
11140;DHT22;5624;49.388;11.350;2024-03-29T01:23:40;3.90;99.90
11140;DHT22;5624;49.388;11.350;2024-03-29T01:26:07;3.90;99.90
11140;DHT22;5624;49.388;11.350;2024-03-29T01:28:33;4.00;99.30
11140;DHT22;5624;49.388;11.350;2024-03-29T01:30:58;4.10;98.50
11140;DHT22;5624;49.388;11.350;2024-03-29T01:33:25;4.10;98.20
11140;DHT22;5624;49.388;11.350;2024-03-29T01:35:51;4.20;97.80
11140;DHT22;5624;49.388;11.350;2024-03-29T01:38:16;4.30;96.50
11140;DHT22;5624;49.388;11.350;2024-03-29T01:40:42;4.30;96.00
11140;DHT22;5624;49.388;11.350;2024-03-29T01:43:07;4.40;95.40
11140;DHT22;5624;49.388;11.350;2024-03-29T01:45:38;4.40;95.20
11140;DHT22;5624;49.388;11.350;2024-03-29T01:48:05;4.40;95.00
11140;DHT22;5624;49.388;11.350;2024-03-29T01:50:32;4.40;95.20
11140;DHT22;5624;49.388;11.350;2024-03-29T01:52:58;4.40;94.60
11140;DHT22;5624;49.388;11.350;2024-03-29T01:55:24;4.50;93.90
11140;DHT22;5624;49.388;11.350;2024-03-29T01:57:50;4.60;93.50
11140;DHT22;5624;49.388;11.350;2024-03-29T02:00:17;4.70;93.00
11140;DHT22;5624;49.388;11.350;2024-03-29T02:02:42;4.60;93.20
11140;DHT22;5624;49.388;11.350;2024-03-29T02:05:08;4.60;92.80
11140;DHT22;5624;49.388;11.350;2024-03-29T02:07:35;4.70;92.00
11140;DHT22;5624;49.388;11.350;2024-03-29T02:10:02;4.70;92.00
11140;DHT22;5624;49.388;11.350;2024-03-29T02:12:28;4.70;91.90
11140;DHT22;5624;49.388;11.350;2024-03-29T02:14:53;4.70;91.80
11140;DHT22;5624;49.388;11.350;2024-03-29T02:17:19;4.70;91.30
11140;DHT22;5624;49.388;11.350;2024-03-29T02:19:44;4.70;91.40
11140;DHT22;5624;49.388;11.350;2024-03-29T02:22:13;4.80;91.30
11140;DHT22;5624;49.388;11.350;2024-03-29T02:24:40;4.80;91.10
11140;DHT22;5624;49.388;11.350;2024-03-29T02:27:06;4.80;90.30
11140;DHT22;5624;49.388;11.350;2024-03-29T02:29:31;4.90;89.90
11140;DHT22;5624;49.388;11.350;2024-03-29T02:31:57;4.80;89.70
11140;DHT22;5624;49.388;11.350;2024-03-29T02:34:22;4.90;89.40
11140;DHT22;5624;49.388;11.350;2024-03-29T02:36:48;4.90;89.80
11140;DHT22;5624;49.388;11.350;2024-03-29T02:39:14;4.90;88.60
11140;DHT22;5624;49.388;11.350;2024-03-29T02:41:39;4.90;88.50
11140;DHT22;5624;49.388;11.350;2024-03-29T02:44:05;4.90;88.50
11140;DHT22;5624;49.388;11.350;2024-03-29T02:46:30;4.90;88.10
11140;DHT22;5624;49.388;11.350;2024-03-29T02:48:56;4.90;87.90
11140;DHT22;5624;49.388;11.350;2024-03-29T02:51:21;4.90;87.20
11140;DHT22;5624;49.388;11.350;2024-03-29T02:53:47;4.90;87.70
11140;DHT22;5624;49.388;11.350;2024-03-29T02:56:12;5.00;87.00
11140;DHT22;5624;49.388;11.350;2024-03-29T02:58:39;5.00;86.80
11140;DHT22;5624;49.388;11.350;2024-03-29T03:01:06;5.00;87.70
11140;DHT22;5624;49.388;11.350;2024-03-29T03:03:32;4.90;87.90
11140;DHT22;5624;49.388;11.350;2024-03-29T03:05:58;5.00;86.40
11140;DHT22;5624;49.388;11.350;2024-03-29T03:08:23;5.00;86.00
11140;DHT22;5624;49.388;11.350;2024-03-29T03:11:07;5.00;86.60
11140;DHT22;5624;49.388;11.350;2024-03-29T03:13:33;5.00;86.00
11140;DHT22;5624;49.388;11.350;2024-03-29T03:15:58;5.00;86.60
11140;DHT22;5624;49.388;11.350;2024-03-29T03:18:24;5.00;85.70
11140;DHT22;5624;49.388;11.350;2024-03-29T03:20:53;5.00;85.70
11140;DHT22;5624;49.388;11.350;2024-03-29T03:23:19;5.00;86.00
11140;DHT22;5624;49.388;11.350;2024-03-29T03:25:58;5.10;85.60
11140;DHT22;5624;49.388;11.350;2024-03-29T03:28:25;5.00;85.90
11140;DHT22;5624;49.388;11.350;2024-03-29T03:30:54;5.00;85.50
11140;DHT22;5624;49.388;11.350;2024-03-29T03:33:20;5.00;85.20
11140;DHT22;5624;49.388;11.350;2024-03-29T03:35:46;5.00;85.70
11140;DHT22;5624;49.388;11.350;2024-03-29T03:38:12;5.00;85.40
11140;DHT22;5624;49.388;11.350;2024-03-29T03:40:38;5.00;85.70
11140;DHT22;5624;49.388;11.350;2024-03-29T03:43:05;5.10;84.20
11140;DHT22;5624;49.388;11.350;2024-03-29T03:45:41;5.00;84.50
11140;DHT22;5624;49.388;11.350;2024-03-29T03:48:10;5.10;85.40
11140;DHT22;5624;49.388;11.350;2024-03-29T03:50:37;5.00;85.20
11140;DHT22;5624;49.388;11.350;2024-03-29T03:53:03;5.00;84.80
11140;DHT22;5624;49.388;11.350;2024-03-29T03:55:28;5.00;85.90
11140;DHT22;5624;49.388;11.350;2024-03-29T03:57:54;5.00;85.90
11140;DHT22;5624;49.388;11.350;2024-03-29T04:00:20;5.00;85.80
11140;DHT22;5624;49.388;11.350;2024-03-29T04:02:52;5.00;85.30
11140;DHT22;5624;49.388;11.350;2024-03-29T04:05:19;5.00;85.40
11140;DHT22;5624;49.388;11.350;2024-03-29T04:07:44;5.00;85.10
11140;DHT22;5624;49.388;11.350;2024-03-29T04:10:10;5.00;85.40
11140;DHT22;5624;49.388;11.350;2024-03-29T04:12:36;5.00;85.20
11140;DHT22;5624;49.388;11.350;2024-03-29T04:15:01;5.00;85.20
11140;DHT22;5624;49.388;11.350;2024-03-29T04:17:28;5.00;85.10
11140;DHT22;5624;49.388;11.350;2024-03-29T04:19:56;5.00;84.70
11140;DHT22;5624;49.388;11.350;2024-03-29T04:22:21;5.00;84.50
11140;DHT22;5624;49.388;11.350;2024-03-29T04:24:47;5.00;84.20
11140;DHT22;5624;49.388;11.350;2024-03-29T04:27:12;5.10;83.90
11140;DHT22;5624;49.388;11.350;2024-03-29T04:29:38;5.00;84.20
11140;DHT22;5624;49.388;11.350;2024-03-29T04:32:04;5.00;83.90
11140;DHT22;5624;49.388;11.350;2024-03-29T04:34:29;5.00;84.20
11140;DHT22;5624;49.388;11.350;2024-03-29T04:36:55;5.00;83.60
11140;DHT22;5624;49.388;11.350;2024-03-29T04:39:22;5.00;84.20
11140;DHT22;5624;49.388;11.350;2024-03-29T04:41:47;5.00;83.70
11140;DHT22;5624;49.388;11.350;2024-03-29T04:44:13;5.00;83.90
11140;DHT22;5624;49.388;11.350;2024-03-29T04:46:39;5.00;84.20
11140;DHT22;5624;49.388;11.350;2024-03-29T04:49:04;5.00;84.10
11140;DHT22;5624;49.388;11.350;2024-03-29T04:51:30;4.90;84.50
11140;DHT22;5624;49.388;11.350;2024-03-29T04:53:55;5.00;83.70
11140;DHT22;5624;49.388;11.350;2024-03-29T04:56:21;5.00;83.40
11140;DHT22;5624;49.388;11.350;2024-03-29T04:58:46;5.00;83.50
11140;DHT22;5624;49.388;11.350;2024-03-29T05:01:12;5.00;84.30
11140;DHT22;5624;49.388;11.350;2024-03-29T05:03:37;5.00;84.10
11140;DHT22;5624;49.388;11.350;2024-03-29T05:06:03;5.00;83.90
11140;DHT22;5624;49.388;11.350;2024-03-29T05:08:29;5.00;84.60
11140;DHT22;5624;49.388;11.350;2024-03-29T05:10:55;5.00;84.50
11140;DHT22;5624;49.388;11.350;2024-03-29T05:13:20;5.00;84.30
11140;DHT22;5624;49.388;11.350;2024-03-29T05:15:47;5.10;83.40
11140;DHT22;5624;49.388;11.350;2024-03-29T05:18:13;5.10;83.60
11140;DHT22;5624;49.388;11.350;2024-03-29T05:20:38;5.20;83.90
11140;DHT22;5624;49.388;11.350;2024-03-29T05:23:06;5.40;83.20
11140;DHT22;5624;49.388;11.350;2024-03-29T05:25:32;5.40;82.30
11140;DHT22;5624;49.388;11.350;2024-03-29T05:27:58;5.40;82.70
11140;DHT22;5624;49.388;11.350;2024-03-29T05:30:23;5.40;82.40
11140;DHT22;5624;49.388;11.350;2024-03-29T05:32:49;5.40;82.20
11140;DHT22;5624;49.388;11.350;2024-03-29T05:35:15;5.40;81.90
11140;DHT22;5624;49.388;11.350;2024-03-29T05:37:41;5.50;81.60
11140;DHT22;5624;49.388;11.350;2024-03-29T05:40:08;5.50;82.30
11140;DHT22;5624;49.388;11.350;2024-03-29T05:42:34;5.50;81.70
11140;DHT22;5624;49.388;11.350;2024-03-29T05:45:01;5.60;80.00
11140;DHT22;5624;49.388;11.350;2024-03-29T05:47:27;5.60;80.20
11140;DHT22;5624;49.388;11.350;2024-03-29T05:49:54;5.70;79.70
11140;DHT22;5624;49.388;11.350;2024-03-29T05:52:19;5.80;78.60
11140;DHT22;5624;49.388;11.350;2024-03-29T05:54:46;5.70;79.20
11140;DHT22;5624;49.388;11.350;2024-03-29T05:57:12;5.70;79.10
11140;DHT22;5624;49.388;11.350;2024-03-29T05:59:38;5.70;79.30
11140;DHT22;5624;49.388;11.350;2024-03-29T06:02:04;5.80;79.40
11140;DHT22;5624;49.388;11.350;2024-03-29T06:04:30;5.70;80.70
11140;DHT22;5624;49.388;11.350;2024-03-29T06:07:02;5.80;80.30
11140;DHT22;5624;49.388;11.350;2024-03-29T06:09:28;5.80;79.50
11140;DHT22;5624;49.388;11.350;2024-03-29T06:11:55;5.80;78.30
11140;DHT22;5624;49.388;11.350;2024-03-29T06:14:22;5.90;78.30
11140;DHT22;5624;49.388;11.350;2024-03-29T06:17:07;5.90;78.10
11140;DHT22;5624;49.388;11.350;2024-03-29T06:19:51;6.00;78.70
11140;DHT22;5624;49.388;11.350;2024-03-29T06:22:20;6.10;77.60
11140;DHT22;5624;49.388;11.350;2024-03-29T06:24:46;6.10;77.30
11140;DHT22;5624;49.388;11.350;2024-03-29T06:27:13;6.20;77.40
11140;DHT22;5624;49.388;11.350;2024-03-29T06:29:43;6.20;77.50
11140;DHT22;5624;49.388;11.350;2024-03-29T06:32:08;6.40;76.70
11140;DHT22;5624;49.388;11.350;2024-03-29T06:34:34;6.50;77.10
11140;DHT22;5624;49.388;11.350;2024-03-29T06:36:59;6.60;77.20
11140;DHT22;5624;49.388;11.350;2024-03-29T06:39:25;6.70;75.90
11140;DHT22;5624;49.388;11.350;2024-03-29T06:41:53;6.70;74.60
11140;DHT22;5624;49.388;11.350;2024-03-29T06:44:19;6.70;75.80
11140;DHT22;5624;49.388;11.350;2024-03-29T06:46:45;6.70;75.80
11140;DHT22;5624;49.388;11.350;2024-03-29T06:49:11;6.80;75.70
11140;DHT22;5624;49.388;11.350;2024-03-29T06:51:38;6.90;75.60
11140;DHT22;5624;49.388;11.350;2024-03-29T06:54:04;6.90;74.20
11140;DHT22;5624;49.388;11.350;2024-03-29T06:56:29;7.10;74.70
11140;DHT22;5624;49.388;11.350;2024-03-29T06:58:55;7.20;74.10
11140;DHT22;5624;49.388;11.350;2024-03-29T07:01:21;7.20;73.00
11140;DHT22;5624;49.388;11.350;2024-03-29T07:03:47;7.20;73.20
11140;DHT22;5624;49.388;11.350;2024-03-29T07:06:12;7.20;72.80
11140;DHT22;5624;49.388;11.350;2024-03-29T07:08:38;7.10;73.60
11140;DHT22;5624;49.388;11.350;2024-03-29T07:11:04;7.10;73.50
11140;DHT22;5624;49.388;11.350;2024-03-29T07:13:30;7.10;72.80
11140;DHT22;5624;49.388;11.350;2024-03-29T07:15:59;7.20;72.40
11140;DHT22;5624;49.388;11.350;2024-03-29T07:18:25;7.30;71.60
11140;DHT22;5624;49.388;11.350;2024-03-29T07:20:50;7.40;72.00
11140;DHT22;5624;49.388;11.350;2024-03-29T07:23:16;7.60;70.50
11140;DHT22;5624;49.388;11.350;2024-03-29T07:25:44;7.70;69.60
11140;DHT22;5624;49.388;11.350;2024-03-29T07:28:09;8.00;68.60
11140;DHT22;5624;49.388;11.350;2024-03-29T07:30:36;8.00;69.30
11140;DHT22;5624;49.388;11.350;2024-03-29T07:33:04;8.00;68.30
11140;DHT22;5624;49.388;11.350;2024-03-29T07:35:29;8.00;68.70
11140;DHT22;5624;49.388;11.350;2024-03-29T07:37:55;8.10;68.00
11140;DHT22;5624;49.388;11.350;2024-03-29T07:40:22;8.60;68.20
11140;DHT22;5624;49.388;11.350;2024-03-29T07:42:47;9.50;62.90
11140;DHT22;5624;49.388;11.350;2024-03-29T07:45:13;9.90;61.40
11140;DHT22;5624;49.388;11.350;2024-03-29T07:47:38;10.30;60.60
11140;DHT22;5624;49.388;11.350;2024-03-29T07:50:04;10.10;60.70
11140;DHT22;5624;49.388;11.350;2024-03-29T07:52:32;10.30;59.00
11140;DHT22;5624;49.388;11.350;2024-03-29T07:54:58;10.00;59.70
11140;DHT22;5624;49.388;11.350;2024-03-29T07:57:25;9.90;61.20
11140;DHT22;5624;49.388;11.350;2024-03-29T07:59:51;10.40;60.20
11140;DHT22;5624;49.388;11.350;2024-03-29T08:02:16;10.70;57.70
11140;DHT22;5624;49.388;11.350;2024-03-29T08:04:42;10.80;57.30
11140;DHT22;5624;49.388;11.350;2024-03-29T08:07:08;11.40;58.40
11140;DHT22;5624;49.388;11.350;2024-03-29T08:09:34;11.70;54.20
11140;DHT22;5624;49.388;11.350;2024-03-29T08:11:59;11.40;53.20
11140;DHT22;5624;49.388;11.350;2024-03-29T08:14:25;11.50;53.00
11140;DHT22;5624;49.388;11.350;2024-03-29T08:16:53;12.10;51.90
11140;DHT22;5624;49.388;11.350;2024-03-29T08:19:19;12.30;50.30
11140;DHT22;5624;49.388;11.350;2024-03-29T08:21:45;12.10;51.40
11140;DHT22;5624;49.388;11.350;2024-03-29T08:24:11;13.10;53.40
11140;DHT22;5624;49.388;11.350;2024-03-29T08:26:36;13.60;50.40
11140;DHT22;5624;49.388;11.350;2024-03-29T08:29:02;13.80;48.40
11140;DHT22;5624;49.388;11.350;2024-03-29T08:31:28;13.20;48.70
11140;DHT22;5624;49.388;11.350;2024-03-29T08:33:53;13.00;50.60
11140;DHT22;5624;49.388;11.350;2024-03-29T08:36:19;12.90;49.20
11140;DHT22;5624;49.388;11.350;2024-03-29T08:38:45;12.40;50.70
11140;DHT22;5624;49.388;11.350;2024-03-29T08:41:12;12.60;49.50
11140;DHT22;5624;49.388;11.350;2024-03-29T08:43:37;12.40;50.50
11140;DHT22;5624;49.388;11.350;2024-03-29T08:46:03;12.40;50.40
11140;DHT22;5624;49.388;11.350;2024-03-29T08:48:29;12.60;51.10
11140;DHT22;5624;49.388;11.350;2024-03-29T08:50:55;12.50;51.30
11140;DHT22;5624;49.388;11.350;2024-03-29T08:53:20;12.40;50.90
11140;DHT22;5624;49.388;11.350;2024-03-29T08:55:51;12.00;51.60
11140;DHT22;5624;49.388;11.350;2024-03-29T08:58:16;11.70;54.00
11140;DHT22;5624;49.388;11.350;2024-03-29T09:00:52;11.40;54.40
11140;DHT22;5624;49.388;11.350;2024-03-29T09:03:19;11.20;54.20
11140;DHT22;5624;49.388;11.350;2024-03-29T09:05:44;10.90;55.70
11140;DHT22;5624;49.388;11.350;2024-03-29T09:08:10;10.60;56.30
11140;DHT22;5624;49.388;11.350;2024-03-29T09:10:35;10.40;56.80
11140;DHT22;5624;49.388;11.350;2024-03-29T09:13:01;10.30;58.30
11140;DHT22;5624;49.388;11.350;2024-03-29T09:15:26;10.20;59.90
11140;DHT22;5624;49.388;11.350;2024-03-29T09:17:52;10.10;61.30
11140;DHT22;5624;49.388;11.350;2024-03-29T09:20:20;10.00;64.50
11140;DHT22;5624;49.388;11.350;2024-03-29T09:22:45;9.80;64.60
11140;DHT22;5624;49.388;11.350;2024-03-29T09:25:11;9.60;67.40
11140;DHT22;5624;49.388;11.350;2024-03-29T09:27:40;9.40;70.20
11140;DHT22;5624;49.388;11.350;2024-03-29T09:30:11;9.30;75.10
11140;DHT22;5624;49.388;11.350;2024-03-29T09:32:36;9.10;79.20
11140;DHT22;5624;49.388;11.350;2024-03-29T09:35:02;8.80;80.20
11140;DHT22;5624;49.388;11.350;2024-03-29T09:37:28;8.70;83.40
11140;DHT22;5624;49.388;11.350;2024-03-29T09:39:53;8.70;84.70
11140;DHT22;5624;49.388;11.350;2024-03-29T09:42:22;8.70;87.30
11140;DHT22;5624;49.388;11.350;2024-03-29T09:44:51;8.60;84.60
11140;DHT22;5624;49.388;11.350;2024-03-29T09:47:17;8.50;85.10
11140;DHT22;5624;49.388;11.350;2024-03-29T09:49:44;8.60;86.60
11140;DHT22;5624;49.388;11.350;2024-03-29T09:52:11;8.60;88.00
11140;DHT22;5624;49.388;11.350;2024-03-29T09:54:37;8.80;85.90
11140;DHT22;5624;49.388;11.350;2024-03-29T09:57:04;8.80;84.00
11140;DHT22;5624;49.388;11.350;2024-03-29T09:59:30;8.60;85.80
11140;DHT22;5624;49.388;11.350;2024-03-29T10:01:56;8.70;85.20
11140;DHT22;5624;49.388;11.350;2024-03-29T10:04:23;8.50;87.20
11140;DHT22;5624;49.388;11.350;2024-03-29T10:06:50;8.60;88.10
11140;DHT22;5624;49.388;11.350;2024-03-29T10:09:19;8.80;87.90
11140;DHT22;5624;49.388;11.350;2024-03-29T10:11:45;8.80;89.80
11140;DHT22;5624;49.388;11.350;2024-03-29T10:14:12;8.90;87.00
11140;DHT22;5624;49.388;11.350;2024-03-29T10:16:38;8.90;88.60
11140;DHT22;5624;49.388;11.350;2024-03-29T10:19:04;9.00;87.70
11140;DHT22;5624;49.388;11.350;2024-03-29T10:21:29;9.00;89.90
11140;DHT22;5624;49.388;11.350;2024-03-29T10:23:55;9.00;92.20
11140;DHT22;5624;49.388;11.350;2024-03-29T10:26:21;9.00;94.20
11140;DHT22;5624;49.388;11.350;2024-03-29T10:28:47;8.90;94.30
11140;DHT22;5624;49.388;11.350;2024-03-29T10:31:14;9.20;94.50
11140;DHT22;5624;49.388;11.350;2024-03-29T10:33:43;9.30;91.70
11140;DHT22;5624;49.388;11.350;2024-03-29T10:36:10;9.20;90.30
11140;DHT22;5624;49.388;11.350;2024-03-29T10:38:37;9.20;91.00
11140;DHT22;5624;49.388;11.350;2024-03-29T10:41:04;9.30;90.00
11140;DHT22;5624;49.388;11.350;2024-03-29T10:43:32;9.40;92.50
11140;DHT22;5624;49.388;11.350;2024-03-29T10:46:00;9.50;92.40
11140;DHT22;5624;49.388;11.350;2024-03-29T10:48:26;9.70;90.90
11140;DHT22;5624;49.388;11.350;2024-03-29T10:50:54;9.60;92.20
11140;DHT22;5624;49.388;11.350;2024-03-29T10:53:22;9.70;91.30
11140;DHT22;5624;49.388;11.350;2024-03-29T10:55:50;9.80;92.10
11140;DHT22;5624;49.388;11.350;2024-03-29T10:58:18;9.70;90.60
11140;DHT22;5624;49.388;11.350;2024-03-29T11:00:53;9.80;92.20
11140;DHT22;5624;49.388;11.350;2024-03-29T11:06:04;10.20;90.20
11140;DHT22;5624;49.388;11.350;2024-03-29T11:08:33;10.40;86.40
11140;DHT22;5624;49.388;11.350;2024-03-29T11:11:01;10.50;86.80
11140;DHT22;5624;49.388;11.350;2024-03-29T11:16:15;10.70;85.90
11140;DHT22;5624;49.388;11.350;2024-03-29T11:18:46;10.70;85.70
11140;DHT22;5624;49.388;11.350;2024-03-29T11:21:13;10.60;84.30
11140;DHT22;5624;49.388;11.350;2024-03-29T11:23:39;10.50;84.50
11140;DHT22;5624;49.388;11.350;2024-03-29T11:26:05;10.50;83.50
11140;DHT22;5624;49.388;11.350;2024-03-29T11:28:35;10.40;84.10
11140;DHT22;5624;49.388;11.350;2024-03-29T11:31:05;10.30;85.10
11140;DHT22;5624;49.388;11.350;2024-03-29T11:33:32;10.30;84.90
11140;DHT22;5624;49.388;11.350;2024-03-29T11:36:00;10.30;84.40
11140;DHT22;5624;49.388;11.350;2024-03-29T11:38:39;10.20;83.90
11140;DHT22;5624;49.388;11.350;2024-03-29T11:41:13;10.30;84.40
11140;DHT22;5624;49.388;11.350;2024-03-29T11:43:39;10.20;83.40
11140;DHT22;5624;49.388;11.350;2024-03-29T11:46:07;10.20;83.90
11140;DHT22;5624;49.388;11.350;2024-03-29T11:48:33;10.30;83.60
11140;DHT22;5624;49.388;11.350;2024-03-29T11:51:00;10.20;82.50
11140;DHT22;5624;49.388;11.350;2024-03-29T11:53:26;10.20;84.40
11140;DHT22;5624;49.388;11.350;2024-03-29T11:55:53;10.40;83.70
11140;DHT22;5624;49.388;11.350;2024-03-29T11:58:27;10.60;82.60
11140;DHT22;5624;49.388;11.350;2024-03-29T12:00:53;11.20;83.00
11140;DHT22;5624;49.388;11.350;2024-03-29T12:03:21;11.70;80.10
11140;DHT22;5624;49.388;11.350;2024-03-29T12:05:48;12.00;77.00
11140;DHT22;5624;49.388;11.350;2024-03-29T12:08:14;12.40;77.50
11140;DHT22;5624;49.388;11.350;2024-03-29T12:10:40;12.50;74.30
11140;DHT22;5624;49.388;11.350;2024-03-29T12:13:06;12.50;72.50
11140;DHT22;5624;49.388;11.350;2024-03-29T12:15:33;12.20;72.00
11140;DHT22;5624;49.388;11.350;2024-03-29T12:18:04;12.10;72.90
11140;DHT22;5624;49.388;11.350;2024-03-29T12:20:31;12.00;74.10
11140;DHT22;5624;49.388;11.350;2024-03-29T12:23:01;11.90;74.10
11140;DHT22;5624;49.388;11.350;2024-03-29T12:25:30;12.00;73.80
11140;DHT22;5624;49.388;11.350;2024-03-29T12:27:57;11.70;73.00
11140;DHT22;5624;49.388;11.350;2024-03-29T12:30:22;12.00;73.90
11140;DHT22;5624;49.388;11.350;2024-03-29T12:32:48;12.40;73.70
11140;DHT22;5624;49.388;11.350;2024-03-29T12:35:27;12.80;72.40
11140;DHT22;5624;49.388;11.350;2024-03-29T12:37:52;13.00;71.50
11140;DHT22;5624;49.388;11.350;2024-03-29T12:40:19;13.10;70.20
11140;DHT22;5624;49.388;11.350;2024-03-29T12:42:48;13.10;69.10
11140;DHT22;5624;49.388;11.350;2024-03-29T12:45:14;13.10;69.70
11140;DHT22;5624;49.388;11.350;2024-03-29T12:47:40;13.20;69.60
11140;DHT22;5624;49.388;11.350;2024-03-29T12:50:06;13.80;67.20
11140;DHT22;5624;49.388;11.350;2024-03-29T12:52:39;14.00;66.50
11140;DHT22;5624;49.388;11.350;2024-03-29T12:55:05;14.10;66.40
11140;DHT22;5624;49.388;11.350;2024-03-29T12:57:33;14.00;62.80
11140;DHT22;5624;49.388;11.350;2024-03-29T12:59:59;13.60;65.30
11140;DHT22;5624;49.388;11.350;2024-03-29T13:02:24;13.50;66.50
11140;DHT22;5624;49.388;11.350;2024-03-29T13:04:50;13.50;66.00
11140;DHT22;5624;49.388;11.350;2024-03-29T13:07:16;13.50;66.60
11140;DHT22;5624;49.388;11.350;2024-03-29T13:09:42;13.60;65.90
11140;DHT22;5624;49.388;11.350;2024-03-29T13:12:07;13.70;68.20
11140;DHT22;5624;49.388;11.350;2024-03-29T13:14:33;13.80;67.70
11140;DHT22;5624;49.388;11.350;2024-03-29T13:16:59;13.90;65.60
11140;DHT22;5624;49.388;11.350;2024-03-29T13:19:25;14.00;64.10
11140;DHT22;5624;49.388;11.350;2024-03-29T13:21:50;14.10;64.70
11140;DHT22;5624;49.388;11.350;2024-03-29T13:24:16;14.40;64.90
11140;DHT22;5624;49.388;11.350;2024-03-29T13:26:41;14.50;66.00
11140;DHT22;5624;49.388;11.350;2024-03-29T13:29:07;14.60;64.60
11140;DHT22;5624;49.388;11.350;2024-03-29T13:31:32;14.70;64.30
11140;DHT22;5624;49.388;11.350;2024-03-29T13:33:58;14.80;64.60
11140;DHT22;5624;49.388;11.350;2024-03-29T13:36:38;14.90;63.80
11140;DHT22;5624;49.388;11.350;2024-03-29T13:39:04;15.00;61.90
11140;DHT22;5624;49.388;11.350;2024-03-29T13:41:30;15.00;63.40
11140;DHT22;5624;49.388;11.350;2024-03-29T13:43:56;15.10;63.90
11140;DHT22;5624;49.388;11.350;2024-03-29T13:46:21;15.10;62.30
11140;DHT22;5624;49.388;11.350;2024-03-29T13:48:47;15.20;61.90
11140;DHT22;5624;49.388;11.350;2024-03-29T13:51:13;15.20;61.60
11140;DHT22;5624;49.388;11.350;2024-03-29T13:53:41;15.30;61.80
11140;DHT22;5624;49.388;11.350;2024-03-29T13:56:07;15.30;62.50
11140;DHT22;5624;49.388;11.350;2024-03-29T13:58:33;15.20;61.70
11140;DHT22;5624;49.388;11.350;2024-03-29T14:00:59;15.40;61.10
11140;DHT22;5624;49.388;11.350;2024-03-29T14:03:25;15.60;60.60
11140;DHT22;5624;49.388;11.350;2024-03-29T14:05:51;15.70;59.60
11140;DHT22;5624;49.388;11.350;2024-03-29T14:08:17;15.50;59.80
11140;DHT22;5624;49.388;11.350;2024-03-29T14:10:42;15.30;61.10
11140;DHT22;5624;49.388;11.350;2024-03-29T14:13:09;15.60;60.70
11140;DHT22;5624;49.388;11.350;2024-03-29T14:15:35;15.60;60.10
11140;DHT22;5624;49.388;11.350;2024-03-29T14:18:00;15.40;61.40
11140;DHT22;5624;49.388;11.350;2024-03-29T14:20:26;15.40;60.90
11140;DHT22;5624;49.388;11.350;2024-03-29T14:22:51;15.30;61.20
11140;DHT22;5624;49.388;11.350;2024-03-29T14:25:21;15.30;62.70
11140;DHT22;5624;49.388;11.350;2024-03-29T14:27:46;15.30;61.50
11140;DHT22;5624;49.388;11.350;2024-03-29T14:30:20;15.40;61.80
11140;DHT22;5624;49.388;11.350;2024-03-29T14:32:47;15.50;61.80
11140;DHT22;5624;49.388;11.350;2024-03-29T14:35:15;15.50;60.70
11140;DHT22;5624;49.388;11.350;2024-03-29T14:37:42;15.80;62.20
11140;DHT22;5624;49.388;11.350;2024-03-29T14:40:10;16.00;59.40
11140;DHT22;5624;49.388;11.350;2024-03-29T14:42:43;16.40;58.20
11140;DHT22;5624;49.388;11.350;2024-03-29T14:45:09;16.60;57.20
11140;DHT22;5624;49.388;11.350;2024-03-29T14:47:37;16.60;56.30
11140;DHT22;5624;49.388;11.350;2024-03-29T14:50:04;16.70;55.80
11140;DHT22;5624;49.388;11.350;2024-03-29T14:52:31;16.70;56.10
11140;DHT22;5624;49.388;11.350;2024-03-29T14:54:56;16.60;54.50
11140;DHT22;5624;49.388;11.350;2024-03-29T14:57:22;16.50;56.40
11140;DHT22;5624;49.388;11.350;2024-03-29T14:59:51;16.30;55.90
11140;DHT22;5624;49.388;11.350;2024-03-29T15:02:16;16.20;56.50
11140;DHT22;5624;49.388;11.350;2024-03-29T15:04:42;16.10;57.60
11140;DHT22;5624;49.388;11.350;2024-03-29T15:07:08;15.80;56.80
11140;DHT22;5624;49.388;11.350;2024-03-29T15:09:34;15.90;57.10
11140;DHT22;5624;49.388;11.350;2024-03-29T15:12:00;15.80;57.20
11140;DHT22;5624;49.388;11.350;2024-03-29T15:14:27;15.70;57.30
11140;DHT22;5624;49.388;11.350;2024-03-29T15:16:53;15.70;57.20
11140;DHT22;5624;49.388;11.350;2024-03-29T15:19:18;15.60;58.40
11140;DHT22;5624;49.388;11.350;2024-03-29T15:21:44;15.70;58.10
11140;DHT22;5624;49.388;11.350;2024-03-29T15:24:10;15.70;55.80
11140;DHT22;5624;49.388;11.350;2024-03-29T15:26:35;15.70;55.50
11140;DHT22;5624;49.388;11.350;2024-03-29T15:29:04;15.70;57.40
11140;DHT22;5624;49.388;11.350;2024-03-29T15:31:36;15.60;57.40
11140;DHT22;5624;49.388;11.350;2024-03-29T15:34:02;15.50;58.00
11140;DHT22;5624;49.388;11.350;2024-03-29T15:36:28;15.50;58.60
11140;DHT22;5624;49.388;11.350;2024-03-29T15:38:54;15.40;58.60
11140;DHT22;5624;49.388;11.350;2024-03-29T15:41:20;15.50;57.90